sensor_id;sensor_type;location;lat;lon;timestamp;P1;durP1;ratioP1;P2;durP2;ratioP2
55672;SDS011;41554;45.366;20.400;2022-09-06T00:00:07;14.50;;;10.65;;
55672;SDS011;41554;45.366;20.400;2022-09-06T00:02:33;20.33;;;11.95;;
55672;SDS011;41554;45.366;20.400;2022-09-06T00:05:00;17.63;;;10.95;;
55672;SDS011;41554;45.366;20.400;2022-09-06T00:07:26;13.52;;;10.50;;
55672;SDS011;41554;45.366;20.400;2022-09-06T00:09:52;19.85;;;11.63;;
55672;SDS011;41554;45.366;20.400;2022-09-06T00:12:19;19.17;;;10.75;;
55672;SDS011;41554;45.366;20.400;2022-09-06T00:14:45;13.73;;;10.27;;
55672;SDS011;41554;45.366;20.400;2022-09-06T00:17:11;19.20;;;10.98;;
55672;SDS011;41554;45.366;20.400;2022-09-06T00:19:37;13.60;;;11.23;;
55672;SDS011;41554;45.366;20.400;2022-09-06T00:22:03;12.75;;;9.32;;
55672;SDS011;41554;45.366;20.400;2022-09-06T00:24:29;15.75;;;11.82;;
55672;SDS011;41554;45.366;20.400;2022-09-06T00:26:56;10.90;;;9.80;;
55672;SDS011;41554;45.366;20.400;2022-09-06T00:29:22;12.85;;;10.50;;
55672;SDS011;41554;45.366;20.400;2022-09-06T00:31:49;15.30;;;12.10;;
55672;SDS011;41554;45.366;20.400;2022-09-06T00:34:15;23.98;;;12.20;;
55672;SDS011;41554;45.366;20.400;2022-09-06T00:36:41;11.18;;;9.68;;
55672;SDS011;41554;45.366;20.400;2022-09-06T00:39:07;13.57;;;10.15;;
55672;SDS011;41554;45.366;20.400;2022-09-06T00:41:33;12.85;;;10.90;;
55672;SDS011;41554;45.366;20.400;2022-09-06T00:43:59;14.63;;;11.05;;
55672;SDS011;41554;45.366;20.400;2022-09-06T00:46:27;13.35;;;10.43;;
55672;SDS011;41554;45.366;20.400;2022-09-06T00:48:55;14.18;;;11.23;;
55672;SDS011;41554;45.366;20.400;2022-09-06T00:51:21;11.50;;;9.75;;
55672;SDS011;41554;45.366;20.400;2022-09-06T00:53:48;11.77;;;9.98;;
55672;SDS011;41554;45.366;20.400;2022-09-06T00:56:15;16.63;;;11.27;;
55672;SDS011;41554;45.366;20.400;2022-09-06T00:58:41;15.48;;;10.50;;
55672;SDS011;41554;45.366;20.400;2022-09-06T01:01:07;13.15;;;11.65;;
55672;SDS011;41554;45.366;20.400;2022-09-06T01:03:33;12.50;;;10.88;;
55672;SDS011;41554;45.366;20.400;2022-09-06T01:08:52;11.95;;;10.07;;
55672;SDS011;41554;45.366;20.400;2022-09-06T01:11:29;14.82;;;10.43;;
55672;SDS011;41554;45.366;20.400;2022-09-06T01:14:04;17.40;;;11.98;;
55672;SDS011;41554;45.366;20.400;2022-09-06T01:31:50;28.30;;;12.50;;
55672;SDS011;41554;45.366;20.400;2022-09-06T01:37:13;14.77;;;10.27;;
55672;SDS011;41554;45.366;20.400;2022-09-06T01:39:39;12.57;;;11.02;;
55672;SDS011;41554;45.366;20.400;2022-09-06T01:42:10;12.10;;;10.88;;
55672;SDS011;41554;45.366;20.400;2022-09-06T01:44:38;13.30;;;11.98;;
55672;SDS011;41554;45.366;20.400;2022-09-06T01:47:12;12.57;;;11.25;;
55672;SDS011;41554;45.366;20.400;2022-09-06T01:50:09;13.40;;;11.15;;
55672;SDS011;41554;45.366;20.400;2022-09-06T01:58:02;16.52;;;14.70;;
55672;SDS011;41554;45.366;20.400;2022-09-06T02:00:30;18.58;;;12.80;;
55672;SDS011;41554;45.366;20.400;2022-09-06T02:03:07;14.57;;;12.98;;
55672;SDS011;41554;45.366;20.400;2022-09-06T02:05:40;14.05;;;11.77;;
55672;SDS011;41554;45.366;20.400;2022-09-06T02:08:08;18.95;;;13.15;;
55672;SDS011;41554;45.366;20.400;2022-09-06T02:10:37;10.57;;;9.53;;
55672;SDS011;41554;45.366;20.400;2022-09-06T02:13:05;17.15;;;14.13;;
55672;SDS011;41554;45.366;20.400;2022-09-06T02:15:32;14.57;;;12.13;;
55672;SDS011;41554;45.366;20.400;2022-09-06T02:18:01;18.20;;;13.90;;
55672;SDS011;41554;45.366;20.400;2022-09-06T02:20:29;12.40;;;11.00;;
55672;SDS011;41554;45.366;20.400;2022-09-06T02:22:58;14.98;;;12.23;;
55672;SDS011;41554;45.366;20.400;2022-09-06T02:25:28;13.15;;;11.77;;
55672;SDS011;41554;45.366;20.400;2022-09-06T02:27:56;15.00;;;11.77;;
55672;SDS011;41554;45.366;20.400;2022-09-06T02:30:22;14.55;;;11.57;;
55672;SDS011;41554;45.366;20.400;2022-09-06T02:32:54;13.88;;;11.45;;
55672;SDS011;41554;45.366;20.400;2022-09-06T02:35:20;15.48;;;13.50;;
55672;SDS011;41554;45.366;20.400;2022-09-06T02:37:47;17.70;;;13.48;;
55672;SDS011;41554;45.366;20.400;2022-09-06T02:40:13;13.95;;;12.45;;
55672;SDS011;41554;45.366;20.400;2022-09-06T02:42:40;22.40;;;13.25;;
55672;SDS011;41554;45.366;20.400;2022-09-06T02:45:06;12.70;;;10.55;;
55672;SDS011;41554;45.366;20.400;2022-09-06T02:47:33;19.15;;;13.02;;
55672;SDS011;41554;45.366;20.400;2022-09-06T02:49:59;13.32;;;11.95;;
55672;SDS011;41554;45.366;20.400;2022-09-06T02:52:25;21.95;;;13.07;;
55672;SDS011;41554;45.366;20.400;2022-09-06T02:54:51;17.55;;;12.23;;
55672;SDS011;41554;45.366;20.400;2022-09-06T02:57:17;12.35;;;11.00;;
55672;SDS011;41554;45.366;20.400;2022-09-06T02:59:43;21.80;;;15.27;;
55672;SDS011;41554;45.366;20.400;2022-09-06T03:02:10;18.48;;;12.88;;
55672;SDS011;41554;45.366;20.400;2022-09-06T03:04:36;16.67;;;12.05;;
55672;SDS011;41554;45.366;20.400;2022-09-06T03:07:02;17.58;;;12.32;;
55672;SDS011;41554;45.366;20.400;2022-09-06T03:09:28;21.23;;;10.88;;
55672;SDS011;41554;45.366;20.400;2022-09-06T03:11:54;21.10;;;12.23;;
55672;SDS011;41554;45.366;20.400;2022-09-06T03:14:20;11.90;;;10.15;;
55672;SDS011;41554;45.366;20.400;2022-09-06T03:16:46;16.80;;;12.05;;
55672;SDS011;41554;45.366;20.400;2022-09-06T03:19:12;16.58;;;13.95;;
55672;SDS011;41554;45.366;20.400;2022-09-06T03:21:38;14.05;;;12.20;;
55672;SDS011;41554;45.366;20.400;2022-09-06T03:24:05;15.18;;;11.88;;
55672;SDS011;41554;45.366;20.400;2022-09-06T03:26:31;24.60;;;12.65;;
55672;SDS011;41554;45.366;20.400;2022-09-06T03:28:57;14.80;;;12.68;;
55672;SDS011;41554;45.366;20.400;2022-09-06T03:31:23;13.70;;;11.98;;
55672;SDS011;41554;45.366;20.400;2022-09-06T03:33:49;22.23;;;10.95;;
55672;SDS011;41554;45.366;20.400;2022-09-06T03:36:15;26.00;;;14.25;;
55672;SDS011;41554;45.366;20.400;2022-09-06T03:38:41;13.35;;;11.70;;
55672;SDS011;41554;45.366;20.400;2022-09-06T03:41:07;16.58;;;11.35;;
55672;SDS011;41554;45.366;20.400;2022-09-06T03:43:34;13.07;;;10.50;;
55672;SDS011;41554;45.366;20.400;2022-09-06T03:46:00;15.77;;;11.35;;
55672;SDS011;41554;45.366;20.400;2022-09-06T03:48:27;22.17;;;11.48;;
55672;SDS011;41554;45.366;20.400;2022-09-06T03:50:54;19.77;;;13.93;;
55672;SDS011;41554;45.366;20.400;2022-09-06T03:53:21;20.65;;;14.10;;
55672;SDS011;41554;45.366;20.400;2022-09-06T03:55:49;27.95;;;14.70;;
55672;SDS011;41554;45.366;20.400;2022-09-06T03:58:16;19.05;;;13.88;;
55672;SDS011;41554;45.366;20.400;2022-09-06T04:00:42;16.42;;;12.82;;
55672;SDS011;41554;45.366;20.400;2022-09-06T04:03:09;19.67;;;15.85;;
55672;SDS011;41554;45.366;20.400;2022-09-06T04:05:35;17.40;;;13.88;;
55672;SDS011;41554;45.366;20.400;2022-09-06T04:08:01;21.27;;;13.90;;
55672;SDS011;41554;45.366;20.400;2022-09-06T04:10:27;25.88;;;15.80;;
55672;SDS011;41554;45.366;20.400;2022-09-06T04:12:53;29.65;;;18.50;;
55672;SDS011;41554;45.366;20.400;2022-09-06T04:15:19;22.42;;;18.40;;
55672;SDS011;41554;45.366;20.400;2022-09-06T04:17:46;22.45;;;17.02;;
55672;SDS011;41554;45.366;20.400;2022-09-06T04:20:12;29.92;;;23.23;;
55672;SDS011;41554;45.366;20.400;2022-09-06T04:22:38;27.35;;;19.25;;
55672;SDS011;41554;45.366;20.400;2022-09-06T04:25:05;28.13;;;20.88;;
55672;SDS011;41554;45.366;20.400;2022-09-06T04:27:31;37.75;;;22.48;;
55672;SDS011;41554;45.366;20.400;2022-09-06T04:29:57;22.10;;;17.20;;
55672;SDS011;41554;45.366;20.400;2022-09-06T04:32:23;33.47;;;19.10;;
55672;SDS011;41554;45.366;20.400;2022-09-06T04:34:49;22.45;;;17.17;;
55672;SDS011;41554;45.366;20.400;2022-09-06T04:37:15;27.17;;;20.77;;
55672;SDS011;41554;45.366;20.400;2022-09-06T04:39:44;23.40;;;18.48;;
55672;SDS011;41554;45.366;20.400;2022-09-06T04:42:10;25.42;;;17.73;;
55672;SDS011;41554;45.366;20.400;2022-09-06T04:44:36;28.85;;;19.10;;
55672;SDS011;41554;45.366;20.400;2022-09-06T04:47:10;26.63;;;19.60;;
55672;SDS011;41554;45.366;20.400;2022-09-06T04:49:39;19.55;;;17.27;;
55672;SDS011;41554;45.366;20.400;2022-09-06T04:52:05;22.17;;;16.50;;
55672;SDS011;41554;45.366;20.400;2022-09-06T04:54:31;20.83;;;16.30;;
55672;SDS011;41554;45.366;20.400;2022-09-06T04:56:57;30.55;;;16.88;;
55672;SDS011;41554;45.366;20.400;2022-09-06T04:59:23;19.98;;;16.65;;
55672;SDS011;41554;45.366;20.400;2022-09-06T05:01:49;24.23;;;17.08;;
55672;SDS011;41554;45.366;20.400;2022-09-06T05:04:15;20.35;;;14.38;;
55672;SDS011;41554;45.366;20.400;2022-09-06T05:06:41;27.42;;;20.45;;
55672;SDS011;41554;45.366;20.400;2022-09-06T05:09:07;24.80;;;16.65;;
55672;SDS011;41554;45.366;20.400;2022-09-06T05:11:34;20.67;;;15.77;;
55672;SDS011;41554;45.366;20.400;2022-09-06T05:14:00;26.13;;;17.10;;
55672;SDS011;41554;45.366;20.400;2022-09-06T05:16:26;24.25;;;16.98;;
55672;SDS011;41554;45.366;20.400;2022-09-06T05:18:52;32.83;;;14.63;;
55672;SDS011;41554;45.366;20.400;2022-09-06T05:21:18;23.83;;;14.63;;
55672;SDS011;41554;45.366;20.400;2022-09-06T05:23:44;46.17;;;29.92;;
55672;SDS011;41554;45.366;20.400;2022-09-06T05:26:10;31.67;;;23.73;;
55672;SDS011;41554;45.366;20.400;2022-09-06T05:28:36;19.95;;;15.77;;
55672;SDS011;41554;45.366;20.400;2022-09-06T05:31:21;19.30;;;13.02;;
55672;SDS011;41554;45.366;20.400;2022-09-06T05:33:50;18.38;;;12.77;;
55672;SDS011;41554;45.366;20.400;2022-09-06T05:36:16;12.93;;;10.48;;
55672;SDS011;41554;45.366;20.400;2022-09-06T05:38:42;25.50;;;11.70;;
55672;SDS011;41554;45.366;20.400;2022-09-06T05:41:08;13.30;;;10.85;;
55672;SDS011;41554;45.366;20.400;2022-09-06T05:43:34;19.60;;;10.85;;
55672;SDS011;41554;45.366;20.400;2022-09-06T05:46:00;31.90;;;10.43;;
55672;SDS011;41554;45.366;20.400;2022-09-06T05:48:26;14.35;;;10.73;;
55672;SDS011;41554;45.366;20.400;2022-09-06T05:50:59;18.88;;;11.70;;
55672;SDS011;41554;45.366;20.400;2022-09-06T05:53:26;24.80;;;10.85;;
55672;SDS011;41554;45.366;20.400;2022-09-06T05:55:52;19.20;;;13.55;;
55672;SDS011;41554;45.366;20.400;2022-09-06T05:58:18;15.73;;;11.85;;
55672;SDS011;41554;45.366;20.400;2022-09-06T06:00:44;18.48;;;11.32;;
55672;SDS011;41554;45.366;20.400;2022-09-06T06:03:10;14.63;;;11.13;;
55672;SDS011;41554;45.366;20.400;2022-09-06T06:05:36;18.02;;;11.20;;
55672;SDS011;41554;45.366;20.400;2022-09-06T06:08:02;15.68;;;10.80;;
55672;SDS011;41554;45.366;20.400;2022-09-06T06:10:28;14.98;;;10.88;;
55672;SDS011;41554;45.366;20.400;2022-09-06T06:12:55;12.65;;;10.65;;
55672;SDS011;41554;45.366;20.400;2022-09-06T06:15:21;16.80;;;11.52;;
55672;SDS011;41554;45.366;20.400;2022-09-06T06:17:48;19.55;;;12.23;;
55672;SDS011;41554;45.366;20.400;2022-09-06T06:20:14;16.60;;;9.77;;
55672;SDS011;41554;45.366;20.400;2022-09-06T06:22:40;12.25;;;10.90;;
55672;SDS011;41554;45.366;20.400;2022-09-06T06:25:06;14.15;;;11.23;;
55672;SDS011;41554;45.366;20.400;2022-09-06T06:27:32;26.30;;;11.88;;
55672;SDS011;41554;45.366;20.400;2022-09-06T06:30:00;18.15;;;11.43;;
55672;SDS011;41554;45.366;20.400;2022-09-06T06:32:26;17.35;;;12.07;;
55672;SDS011;41554;45.366;20.400;2022-09-06T06:34:52;13.23;;;10.13;;
55672;SDS011;41554;45.366;20.400;2022-09-06T06:37:19;14.88;;;10.35;;
55672;SDS011;41554;45.366;20.400;2022-09-06T06:39:45;16.45;;;11.90;;
55672;SDS011;41554;45.366;20.400;2022-09-06T06:42:11;39.35;;;30.25;;
55672;SDS011;41554;45.366;20.400;2022-09-06T06:44:39;21.13;;;16.25;;
55672;SDS011;41554;45.366;20.400;2022-09-06T06:47:06;19.75;;;12.00;;
55672;SDS011;41554;45.366;20.400;2022-09-06T06:49:32;19.25;;;12.85;;
55672;SDS011;41554;45.366;20.400;2022-09-06T06:51:58;13.70;;;10.57;;
55672;SDS011;41554;45.366;20.400;2022-09-06T06:54:24;18.45;;;12.82;;
55672;SDS011;41554;45.366;20.400;2022-09-06T06:56:50;26.10;;;17.33;;
55672;SDS011;41554;45.366;20.400;2022-09-06T06:59:16;45.58;;;32.80;;
55672;SDS011;41554;45.366;20.400;2022-09-06T07:01:42;23.40;;;19.52;;
55672;SDS011;41554;45.366;20.400;2022-09-06T07:04:08;26.33;;;14.55;;
55672;SDS011;41554;45.366;20.400;2022-09-06T07:06:48;22.88;;;18.38;;
55672;SDS011;41554;45.366;20.400;2022-09-06T07:09:15;28.25;;;23.48;;
55672;SDS011;41554;45.366;20.400;2022-09-06T07:11:42;36.75;;;28.83;;
55672;SDS011;41554;45.366;20.400;2022-09-06T07:14:08;28.77;;;23.50;;
55672;SDS011;41554;45.366;20.400;2022-09-06T07:16:34;31.33;;;23.45;;
55672;SDS011;41554;45.366;20.400;2022-09-06T07:19:00;28.85;;;20.98;;
55672;SDS011;41554;45.366;20.400;2022-09-06T07:21:27;16.17;;;14.13;;
55672;SDS011;41554;45.366;20.400;2022-09-06T07:23:53;24.35;;;20.35;;
55672;SDS011;41554;45.366;20.400;2022-09-06T07:26:20;21.65;;;18.33;;
55672;SDS011;41554;45.366;20.400;2022-09-06T07:28:46;16.75;;;13.48;;
55672;SDS011;41554;45.366;20.400;2022-09-06T07:31:13;47.88;;;14.02;;
55672;SDS011;41554;45.366;20.400;2022-09-06T07:33:39;24.90;;;22.02;;
55672;SDS011;41554;45.366;20.400;2022-09-06T07:36:06;23.60;;;16.23;;
55672;SDS011;41554;45.366;20.400;2022-09-06T07:38:33;15.95;;;11.65;;
55672;SDS011;41554;45.366;20.400;2022-09-06T07:41:03;12.32;;;10.40;;
55672;SDS011;41554;45.366;20.400;2022-09-06T07:43:30;16.02;;;14.07;;
55672;SDS011;41554;45.366;20.400;2022-09-06T07:46:09;24.83;;;19.48;;
55672;SDS011;41554;45.366;20.400;2022-09-06T07:48:36;25.25;;;14.63;;
55672;SDS011;41554;45.366;20.400;2022-09-06T07:51:08;18.77;;;11.85;;
55672;SDS011;41554;45.366;20.400;2022-09-06T07:53:35;12.90;;;10.00;;
55672;SDS011;41554;45.366;20.400;2022-09-06T07:56:02;20.15;;;12.05;;
55672;SDS011;41554;45.366;20.400;2022-09-06T07:58:29;30.45;;;12.50;;
55672;SDS011;41554;45.366;20.400;2022-09-06T08:03:40;14.18;;;11.63;;
55672;SDS011;41554;45.366;20.400;2022-09-06T08:06:06;18.90;;;14.95;;
55672;SDS011;41554;45.366;20.400;2022-09-06T08:08:33;19.38;;;14.85;;
55672;SDS011;41554;45.366;20.400;2022-09-06T08:10:59;12.45;;;8.88;;
55672;SDS011;41554;45.366;20.400;2022-09-06T08:13:25;17.10;;;10.85;;
55672;SDS011;41554;45.366;20.400;2022-09-06T08:15:58;15.90;;;13.68;;
55672;SDS011;41554;45.366;20.400;2022-09-06T08:18:24;17.33;;;10.23;;
55672;SDS011;41554;45.366;20.400;2022-09-06T08:20:50;19.98;;;14.20;;
55672;SDS011;41554;45.366;20.400;2022-09-06T08:23:16;19.67;;;9.32;;
55672;SDS011;41554;45.366;20.400;2022-09-06T08:25:42;18.08;;;13.60;;
55672;SDS011;41554;45.366;20.400;2022-09-06T08:28:09;15.95;;;13.07;;
55672;SDS011;41554;45.366;20.400;2022-09-06T08:30:35;11.98;;;9.80;;
55672;SDS011;41554;45.366;20.400;2022-09-06T08:33:01;15.18;;;10.27;;
55672;SDS011;41554;45.366;20.400;2022-09-06T08:35:27;9.63;;;7.80;;
55672;SDS011;41554;45.366;20.400;2022-09-06T08:37:56;17.50;;;8.60;;
55672;SDS011;41554;45.366;20.400;2022-09-06T08:40:22;10.13;;;8.52;;
55672;SDS011;41554;45.366;20.400;2022-09-06T08:42:49;10.80;;;9.02;;
55672;SDS011;41554;45.366;20.400;2022-09-06T08:45:16;9.48;;;8.50;;
55672;SDS011;41554;45.366;20.400;2022-09-06T08:47:47;9.68;;;7.82;;
55672;SDS011;41554;45.366;20.400;2022-09-06T08:50:14;10.70;;;8.20;;
55672;SDS011;41554;45.366;20.400;2022-09-06T09:00:24;8.73;;;5.70;;
55672;SDS011;41554;45.366;20.400;2022-09-06T09:05:26;7.90;;;6.67;;
55672;SDS011;41554;45.366;20.400;2022-09-06T09:10:30;10.38;;;7.80;;
55672;SDS011;41554;45.366;20.400;2022-09-06T09:12:56;7.70;;;6.10;;
55672;SDS011;41554;45.366;20.400;2022-09-06T09:15:25;8.48;;;5.55;;
55672;SDS011;41554;45.366;20.400;2022-09-06T09:17:52;6.95;;;5.97;;
55672;SDS011;41554;45.366;20.400;2022-09-06T09:20:19;9.20;;;6.38;;
55672;SDS011;41554;45.366;20.400;2022-09-06T09:22:46;8.10;;;6.53;;
55672;SDS011;41554;45.366;20.400;2022-09-06T09:25:17;8.60;;;6.05;;
55672;SDS011;41554;45.366;20.400;2022-09-06T09:27:44;8.07;;;5.18;;
55672;SDS011;41554;45.366;20.400;2022-09-06T09:30:11;14.70;;;6.82;;
55672;SDS011;41554;45.366;20.400;2022-09-06T09:32:38;6.70;;;5.93;;
55672;SDS011;41554;45.366;20.400;2022-09-06T09:42:51;8.70;;;5.95;;
55672;SDS011;41554;45.366;20.400;2022-09-06T09:47:50;6.25;;;4.82;;
55672;SDS011;41554;45.366;20.400;2022-09-06T09:50:26;7.40;;;6.05;;
55672;SDS011;41554;45.366;20.400;2022-09-06T09:52:53;11.80;;;6.32;;
55672;SDS011;41554;45.366;20.400;2022-09-06T09:55:23;10.85;;;6.45;;
55672;SDS011;41554;45.366;20.400;2022-09-06T09:57:50;6.45;;;4.53;;
55672;SDS011;41554;45.366;20.400;2022-09-06T10:03:14;7.63;;;5.03;;
55672;SDS011;41554;45.366;20.400;2022-09-06T10:05:41;11.07;;;7.85;;
55672;SDS011;41554;45.366;20.400;2022-09-06T10:08:19;18.65;;;9.68;;
55672;SDS011;41554;45.366;20.400;2022-09-06T10:10:46;6.28;;;4.55;;
55672;SDS011;41554;45.366;20.400;2022-09-06T10:13:20;16.17;;;5.68;;
55672;SDS011;41554;45.366;20.400;2022-09-06T10:15:47;7.35;;;5.65;;
55672;SDS011;41554;45.366;20.400;2022-09-06T10:20:47;6.00;;;4.68;;
55672;SDS011;41554;45.366;20.400;2022-09-06T10:23:16;7.50;;;5.78;;
55672;SDS011;41554;45.366;20.400;2022-09-06T10:28:34;5.90;;;4.85;;
55672;SDS011;41554;45.366;20.400;2022-09-06T10:33:45;5.93;;;5.30;;
55672;SDS011;41554;45.366;20.400;2022-09-06T10:36:18;10.63;;;5.75;;
55672;SDS011;41554;45.366;20.400;2022-09-06T10:39:07;10.32;;;6.55;;
55672;SDS011;41554;45.366;20.400;2022-09-06T10:46:47;9.57;;;5.30;;
55672;SDS011;41554;45.366;20.400;2022-09-06T10:49:18;5.65;;;4.60;;
55672;SDS011;41554;45.366;20.400;2022-09-06T10:54:13;5.70;;;4.32;;
55672;SDS011;41554;45.366;20.400;2022-09-06T11:04:36;4.47;;;3.63;;
55672;SDS011;41554;45.366;20.400;2022-09-06T11:07:04;12.75;;;10.10;;
55672;SDS011;41554;45.366;20.400;2022-09-06T11:09:33;5.82;;;4.97;;
55672;SDS011;41554;45.366;20.400;2022-09-06T11:14:28;5.78;;;4.07;;
55672;SDS011;41554;45.366;20.400;2022-09-06T11:17:06;5.47;;;4.38;;
55672;SDS011;41554;45.366;20.400;2022-09-06T11:29:46;4.95;;;3.75;;
55672;SDS011;41554;45.366;20.400;2022-09-06T11:34:55;5.53;;;4.18;;
55672;SDS011;41554;45.366;20.400;2022-09-06T11:37:24;5.95;;;4.78;;
55672;SDS011;41554;45.366;20.400;2022-09-06T11:42:39;6.50;;;4.63;;
55672;SDS011;41554;45.366;20.400;2022-09-06T11:47:45;4.72;;;3.80;;
55672;SDS011;41554;45.366;20.400;2022-09-06T12:00:41;8.48;;;5.32;;
55672;SDS011;41554;45.366;20.400;2022-09-06T12:03:08;6.15;;;4.35;;
55672;SDS011;41554;45.366;20.400;2022-09-06T12:06:12;6.25;;;4.93;;
55672;SDS011;41554;45.366;20.400;2022-09-06T12:08:29;5.15;;;4.38;;
55672;SDS011;41554;45.366;20.400;2022-09-06T12:11:20;4.22;;;3.35;;
55672;SDS011;41554;45.366;20.400;2022-09-06T12:13:57;6.47;;;4.57;;
55672;SDS011;41554;45.366;20.400;2022-09-06T12:16:25;6.60;;;4.10;;
55672;SDS011;41554;45.366;20.400;2022-09-06T12:19:20;10.88;;;5.57;;
55672;SDS011;41554;45.366;20.400;2022-09-06T12:21:56;4.90;;;4.35;;
55672;SDS011;41554;45.366;20.400;2022-09-06T12:29:40;6.03;;;4.63;;
55672;SDS011;41554;45.366;20.400;2022-09-06T12:32:15;5.55;;;4.35;;
55672;SDS011;41554;45.366;20.400;2022-09-06T12:34:44;7.18;;;3.95;;
55672;SDS011;41554;45.366;20.400;2022-09-06T12:37:10;4.63;;;4.15;;
55672;SDS011;41554;45.366;20.400;2022-09-06T12:39:37;6.57;;;4.10;;
55672;SDS011;41554;45.366;20.400;2022-09-06T12:44:33;8.88;;;4.80;;
55672;SDS011;41554;45.366;20.400;2022-09-06T12:47:04;5.45;;;4.38;;
55672;SDS011;41554;45.366;20.400;2022-09-06T12:49:32;6.50;;;4.72;;
55672;SDS011;41554;45.366;20.400;2022-09-06T12:52:11;8.52;;;4.95;;
55672;SDS011;41554;45.366;20.400;2022-09-06T12:54:45;6.07;;;4.80;;
55672;SDS011;41554;45.366;20.400;2022-09-06T12:57:13;6.70;;;5.35;;
55672;SDS011;41554;45.366;20.400;2022-09-06T12:59:46;6.07;;;4.72;;
55672;SDS011;41554;45.366;20.400;2022-09-06T13:02:13;7.15;;;5.38;;
55672;SDS011;41554;45.366;20.400;2022-09-06T13:04:45;6.22;;;5.60;;
55672;SDS011;41554;45.366;20.400;2022-09-06T13:07:14;8.50;;;6.43;;
55672;SDS011;41554;45.366;20.400;2022-09-06T13:09:41;8.63;;;6.00;;
55672;SDS011;41554;45.366;20.400;2022-09-06T13:12:31;11.27;;;5.68;;
55672;SDS011;41554;45.366;20.400;2022-09-06T13:14:55;6.32;;;4.93;;
55672;SDS011;41554;45.366;20.400;2022-09-06T13:17:22;5.22;;;4.53;;
55672;SDS011;41554;45.366;20.400;2022-09-06T13:19:49;5.90;;;4.38;;
55672;SDS011;41554;45.366;20.400;2022-09-06T13:22:35;4.93;;;4.43;;
55672;SDS011;41554;45.366;20.400;2022-09-06T13:25:01;4.75;;;3.90;;
55672;SDS011;41554;45.366;20.400;2022-09-06T13:29:57;5.83;;;4.53;;
55672;SDS011;41554;45.366;20.400;2022-09-06T13:32:24;17.45;;;5.63;;
55672;SDS011;41554;45.366;20.400;2022-09-06T13:34:51;10.48;;;5.68;;
55672;SDS011;41554;45.366;20.400;2022-09-06T13:37:21;7.72;;;5.80;;
55672;SDS011;41554;45.366;20.400;2022-09-06T13:39:49;7.25;;;5.95;;
55672;SDS011;41554;45.366;20.400;2022-09-06T13:44:57;6.80;;;5.07;;
55672;SDS011;41554;45.366;20.400;2022-09-06T13:47:27;10.23;;;7.43;;
55672;SDS011;41554;45.366;20.400;2022-09-06T13:49:53;8.32;;;6.05;;
55672;SDS011;41554;45.366;20.400;2022-09-06T13:52:20;5.57;;;4.20;;
55672;SDS011;41554;45.366;20.400;2022-09-06T13:54:46;6.38;;;5.32;;
55672;SDS011;41554;45.366;20.400;2022-09-06T13:57:12;6.22;;;5.30;;
55672;SDS011;41554;45.366;20.400;2022-09-06T13:59:39;6.68;;;5.85;;
55672;SDS011;41554;45.366;20.400;2022-09-06T14:02:10;7.35;;;5.55;;
55672;SDS011;41554;45.366;20.400;2022-09-06T14:04:39;9.57;;;5.05;;
55672;SDS011;41554;45.366;20.400;2022-09-06T14:07:05;5.45;;;4.68;;
55672;SDS011;41554;45.366;20.400;2022-09-06T14:09:31;5.82;;;5.20;;
55672;SDS011;41554;45.366;20.400;2022-09-06T14:11:58;10.18;;;7.80;;
55672;SDS011;41554;45.366;20.400;2022-09-06T14:14:24;5.47;;;4.40;;
55672;SDS011;41554;45.366;20.400;2022-09-06T14:16:50;9.52;;;5.15;;
55672;SDS011;41554;45.366;20.400;2022-09-06T14:19:18;5.22;;;3.72;;
55672;SDS011;41554;45.366;20.400;2022-09-06T14:21:44;5.55;;;4.95;;
55672;SDS011;41554;45.366;20.400;2022-09-06T14:24:10;6.95;;;4.75;;
55672;SDS011;41554;45.366;20.400;2022-09-06T14:26:36;4.40;;;3.30;;
55672;SDS011;41554;45.366;20.400;2022-09-06T14:29:02;4.82;;;4.10;;
55672;SDS011;41554;45.366;20.400;2022-09-06T14:31:29;4.45;;;3.65;;
55672;SDS011;41554;45.366;20.400;2022-09-06T14:33:56;8.13;;;7.32;;
55672;SDS011;41554;45.366;20.400;2022-09-06T14:36:24;5.15;;;4.53;;
55672;SDS011;41554;45.366;20.400;2022-09-06T14:38:51;5.07;;;4.43;;
55672;SDS011;41554;45.366;20.400;2022-09-06T14:41:18;15.32;;;10.23;;
55672;SDS011;41554;45.366;20.400;2022-09-06T14:43:51;10.10;;;7.93;;
55672;SDS011;41554;45.366;20.400;2022-09-06T14:46:17;7.60;;;6.65;;
55672;SDS011;41554;45.366;20.400;2022-09-06T14:48:43;5.75;;;5.07;;
55672;SDS011;41554;45.366;20.400;2022-09-06T14:53:42;5.28;;;4.40;;
55672;SDS011;41554;45.366;20.400;2022-09-06T14:56:09;5.75;;;4.25;;
55672;SDS011;41554;45.366;20.400;2022-09-06T14:58:35;6.57;;;5.45;;
55672;SDS011;41554;45.366;20.400;2022-09-06T15:01:05;6.13;;;4.60;;
55672;SDS011;41554;45.366;20.400;2022-09-06T15:03:32;7.15;;;5.22;;
55672;SDS011;41554;45.366;20.400;2022-09-06T15:05:59;6.75;;;4.68;;
55672;SDS011;41554;45.366;20.400;2022-09-06T15:08:26;4.95;;;4.22;;
55672;SDS011;41554;45.366;20.400;2022-09-06T15:10:52;12.80;;;5.95;;
55672;SDS011;41554;45.366;20.400;2022-09-06T15:13:19;11.07;;;4.95;;
55672;SDS011;41554;45.366;20.400;2022-09-06T15:15:45;6.90;;;4.72;;
55672;SDS011;41554;45.366;20.400;2022-09-06T15:18:12;5.75;;;4.70;;
55672;SDS011;41554;45.366;20.400;2022-09-06T15:20:38;7.05;;;4.38;;
55672;SDS011;41554;45.366;20.400;2022-09-06T15:23:05;7.57;;;4.90;;
55672;SDS011;41554;45.366;20.400;2022-09-06T15:25:31;8.20;;;6.05;;
55672;SDS011;41554;45.366;20.400;2022-09-06T15:27:57;6.65;;;5.32;;
55672;SDS011;41554;45.366;20.400;2022-09-06T15:30:23;7.43;;;6.28;;
55672;SDS011;41554;45.366;20.400;2022-09-06T15:32:49;6.63;;;5.63;;
55672;SDS011;41554;45.366;20.400;2022-09-06T15:35:15;6.60;;;5.10;;
55672;SDS011;41554;45.366;20.400;2022-09-06T15:37:41;6.55;;;5.20;;
55672;SDS011;41554;45.366;20.400;2022-09-06T15:40:09;13.15;;;5.10;;
55672;SDS011;41554;45.366;20.400;2022-09-06T15:42:37;6.05;;;4.68;;
55672;SDS011;41554;45.366;20.400;2022-09-06T15:45:04;4.95;;;4.43;;
55672;SDS011;41554;45.366;20.400;2022-09-06T15:47:30;7.78;;;4.15;;
55672;SDS011;41554;45.366;20.400;2022-09-06T15:49:59;6.15;;;4.43;;
55672;SDS011;41554;45.366;20.400;2022-09-06T15:52:26;9.38;;;6.35;;
55672;SDS011;41554;45.366;20.400;2022-09-06T15:54:52;5.63;;;4.95;;
55672;SDS011;41554;45.366;20.400;2022-09-06T15:57:36;7.55;;;5.45;;
55672;SDS011;41554;45.366;20.400;2022-09-06T16:00:03;6.20;;;4.38;;
55672;SDS011;41554;45.366;20.400;2022-09-06T16:02:29;7.72;;;4.45;;
55672;SDS011;41554;45.366;20.400;2022-09-06T16:04:55;5.60;;;5.00;;
55672;SDS011;41554;45.366;20.400;2022-09-06T16:07:21;8.55;;;5.68;;
55672;SDS011;41554;45.366;20.400;2022-09-06T16:09:49;5.78;;;5.20;;
55672;SDS011;41554;45.366;20.400;2022-09-06T16:12:15;8.00;;;5.75;;
55672;SDS011;41554;45.366;20.400;2022-09-06T16:14:41;14.00;;;10.63;;
55672;SDS011;41554;45.366;20.400;2022-09-06T16:17:07;8.98;;;8.10;;
55672;SDS011;41554;45.366;20.400;2022-09-06T16:19:33;9.82;;;8.20;;
55672;SDS011;41554;45.366;20.400;2022-09-06T16:21:59;9.10;;;7.07;;
55672;SDS011;41554;45.366;20.400;2022-09-06T16:24:26;6.60;;;5.65;;
55672;SDS011;41554;45.366;20.400;2022-09-06T16:26:52;12.98;;;6.65;;